createdAt,value
2022-08-16T00:01:25.025Z,48.06
2022-08-16T00:04:00.093Z,47.82
2022-08-16T00:08:57.646Z,48.07
2022-08-16T00:11:26.814Z,48.35
2022-08-16T00:13:55.576Z,48.04
2022-08-16T00:17:00.880Z,48.38
2022-08-16T00:19:15.567Z,47.81
2022-08-16T00:21:44.755Z,47.64
2022-08-16T00:24:13.356Z,47.05
2022-08-16T00:26:59.758Z,46.81
2022-08-16T00:29:29.677Z,46.82
2022-08-16T00:32:01.103Z,46.63
2022-08-16T00:34:43.543Z,46.70
2022-08-16T00:37:16.765Z,46.53
2022-08-16T00:39:47.065Z,46.03
2022-08-16T00:42:30.518Z,46.43
2022-08-16T00:45:09.905Z,46.32
2022-08-16T00:47:49.287Z,46.24
2022-08-16T00:50:36.629Z,46.46
2022-08-16T00:53:05.466Z,46.35
2022-08-16T00:55:37.648Z,46.18
2022-08-16T00:58:13.064Z,46.36
2022-08-16T01:00:55.956Z,46.72
2022-08-16T01:03:30.506Z,46.30
2022-08-16T01:06:39.564Z,46.65
2022-08-16T01:08:53.219Z,47.23
2022-08-16T01:11:24.931Z,48.27
2022-08-16T01:13:58.996Z,50.97
2022-08-16T01:16:29.524Z,50.66
2022-08-16T01:19:02.582Z,51.62
2022-08-16T01:21:40.862Z,51.71
2022-08-16T01:24:52.964Z,53.65
2022-08-16T01:27:11.224Z,53.85
2022-08-16T01:29:56.924Z,55.40
2022-08-16T01:32:33.674Z,56.27
2022-08-16T01:35:17.021Z,57.48
2022-08-16T01:37:54.031Z,58.32
2022-08-16T01:40:30.462Z,57.94
2022-08-16T01:42:59.514Z,57.54
2022-08-16T01:45:40.637Z,58.12
2022-08-16T01:48:19.707Z,59.06
2022-08-16T01:51:09.169Z,58.96
2022-08-16T01:53:40.475Z,58.79
2022-08-16T01:56:27.588Z,58.65
2022-08-16T01:58:59.191Z,58.26
2022-08-16T02:01:31.985Z,59.04
2022-08-16T02:04:10.619Z,59.23
2022-08-16T02:06:46.958Z,58.73
2022-08-16T02:09:25.698Z,58.56
2022-08-16T02:12:51.586Z,58.42
2022-08-16T02:14:56.298Z,58.89
2022-08-16T02:17:25.914Z,59.41
2022-08-16T02:20:00.083Z,59.21
2022-08-16T02:22:34.124Z,59.40
2022-08-16T02:25:08.266Z,59.33
2022-08-16T02:27:39.958Z,59.23
2022-08-16T02:30:36.539Z,59.59
2022-08-16T02:33:04.026Z,59.00
2022-08-16T02:35:33.492Z,59.20
2022-08-16T02:38:08.811Z,59.36
2022-08-16T02:40:39.659Z,59.33
2022-08-16T02:43:13.174Z,59.01
2022-08-16T02:45:41.689Z,58.99
2022-08-16T02:48:30.562Z,59.01
2022-08-16T02:51:06.415Z,59.28
2022-08-16T02:53:43.371Z,58.01
2022-08-16T02:56:14.863Z,57.92
2022-08-16T02:58:46.042Z,58.45
2022-08-16T03:01:24.254Z,58.16
2022-08-16T03:04:41.499Z,58.68
2022-08-16T03:06:44.517Z,58.94
2022-08-16T03:09:28.719Z,58.95
2022-08-16T03:12:00.956Z,58.69
2022-08-16T03:14:33.264Z,58.82
2022-08-16T03:17:02.914Z,59.54
2022-08-16T03:19:47.075Z,58.74
2022-08-16T03:22:19.192Z,58.66
2022-08-16T03:24:57.590Z,59.14
2022-08-16T03:27:30.915Z,58.46
2022-08-16T03:30:17.565Z,58.73
2022-08-16T03:32:59.623Z,58.57
2022-08-16T03:35:35.226Z,58.08
2022-08-16T03:38:34.125Z,58.07
2022-08-16T03:41:17.099Z,57.75
2022-08-16T03:43:56.797Z,57.48
2022-08-16T03:46:44.880Z,56.54
2022-08-16T03:49:20.601Z,56.85
2022-08-16T03:51:52.855Z,57.05
2022-08-16T03:54:24.183Z,56.06
2022-08-16T03:56:58.591Z,56.44
2022-08-16T03:59:30.310Z,55.26
2022-08-16T04:02:21.963Z,55.63
2022-08-16T04:04:54.114Z,55.76
2022-08-16T04:07:25.691Z,55.42
2022-08-16T04:09:54.183Z,55.27
2022-08-16T04:12:53.599Z,54.39
2022-08-16T04:15:13.526Z,54.35
2022-08-16T04:17:55.214Z,54.21
2022-08-16T04:20:31.431Z,53.99
2022-08-16T04:23:06.242Z,54.50
2022-08-16T04:25:35.717Z,53.78
2022-08-16T04:28:52.093Z,54.30
2022-08-16T04:30:54.934Z,53.95
2022-08-16T04:33:27.073Z,53.85
2022-08-16T04:35:58.087Z,53.62
2022-08-16T04:38:27.604Z,53.69
2022-08-16T04:40:58.843Z,53.05
2022-08-16T04:43:29.413Z,52.84
2022-08-16T04:46:03.270Z,52.66
2022-08-16T04:48:39.199Z,53.40
2022-08-16T04:51:12.901Z,52.79
2022-08-16T04:54:00.561Z,52.60
2022-08-16T04:56:29.113Z,52.40
2022-08-16T04:58:58.845Z,52.27
2022-08-16T05:01:57.892Z,52.59
2022-08-16T05:04:19.810Z,52.18
2022-08-16T05:06:50.481Z,52.06
2022-08-16T05:09:28.838Z,51.66
2022-08-16T05:11:59.128Z,52.01
2022-08-16T05:14:45.665Z,51.66
2022-08-16T05:17:24.726Z,51.60
2022-08-16T05:19:58.675Z,51.78
2022-08-16T05:22:40.730Z,51.61
2022-08-16T05:25:16.622Z,51.67
2022-08-16T05:27:50.417Z,51.30
2022-08-16T05:30:34.971Z,50.73
2022-08-16T05:33:18.309Z,50.80
2022-08-16T05:35:55.450Z,50.68
2022-08-16T05:38:48.621Z,50.21
2022-08-16T05:41:17.165Z,50.40
2022-08-16T05:43:48.116Z,50.25
2022-08-16T05:46:34.018Z,50.31
2022-08-16T05:49:16.600Z,49.76
2022-08-16T05:51:53.108Z,49.47
2022-08-16T05:54:25.226Z,49.38
2022-08-16T05:56:57.604Z,49.11
2022-08-16T05:59:28.221Z,48.94
2022-08-16T06:01:58.264Z,48.90
2022-08-16T06:04:37.442Z,48.32
2022-08-16T06:07:26.230Z,47.99
2022-08-16T06:10:07.242Z,48.35
2022-08-16T06:12:38.424Z,48.04
2022-08-16T06:15:11.533Z,48.34
2022-08-16T06:17:44.574Z,48.20
2022-08-16T06:20:35.056Z,48.04
2022-08-16T06:23:17.511Z,48.02
2022-08-16T06:26:07.639Z,47.86
2022-08-16T06:28:41.851Z,47.88
2022-08-16T06:31:18.352Z,47.62
2022-08-16T06:33:53.352Z,47.38
2022-08-16T06:36:24.232Z,47.57
2022-08-16T06:39:20.165Z,47.46
2022-08-16T06:41:58.382Z,46.86
2022-08-16T06:44:45.102Z,46.91
2022-08-16T06:47:52.462Z,47.37
2022-08-16T06:50:29.582Z,46.91
2022-08-16T06:53:09.057Z,46.35
2022-08-16T06:55:48.078Z,46.41
2022-08-16T06:58:31.782Z,46.00
2022-08-16T07:01:14.689Z,46.16
2022-08-16T07:03:55.807Z,46.31
2022-08-16T07:06:28.230Z,46.04
2022-08-16T07:09:01.356Z,45.91
2022-08-16T07:11:45.618Z,45.96
2022-08-16T07:14:26.651Z,46.50
2022-08-16T07:16:58.983Z,46.17
2022-08-16T07:20:01.816Z,45.87
2022-08-16T07:22:36.661Z,46.03
2022-08-16T07:25:15.961Z,46.08
2022-08-16T07:27:49.643Z,45.84
2022-08-16T07:30:39.420Z,46.32
2022-08-16T07:33:15.850Z,45.82
2022-08-16T07:35:49.518Z,45.46
2022-08-16T07:38:20.371Z,45.72
2022-08-16T07:41:10.245Z,45.87
2022-08-16T07:43:46.118Z,45.47
2022-08-16T07:46:37.541Z,45.02
2022-08-16T07:49:18.205Z,45.00
2022-08-16T07:51:47.192Z,45.19
2022-08-16T07:54:20.771Z,44.90
2022-08-16T07:56:54.153Z,44.74
2022-08-16T07:59:26.164Z,44.68
2022-08-16T08:02:12.210Z,44.41
2022-08-16T08:04:41.663Z,44.75
2022-08-16T08:07:12.317Z,44.60
2022-08-16T08:09:43.262Z,44.65
2022-08-16T08:12:32.126Z,44.52
2022-08-16T08:15:02.255Z,44.46
2022-08-16T08:17:42.978Z,44.23
2022-08-16T08:20:28.789Z,44.11
2022-08-16T08:23:01.559Z,44.00
2022-08-16T08:25:55.123Z,44.16
2022-08-16T08:28:27.460Z,43.54
2022-08-16T08:31:09.208Z,43.55
2022-08-16T08:33:47.306Z,43.53
2022-08-16T08:36:32.951Z,43.32
2022-08-16T08:39:13.215Z,43.50
2022-08-16T08:41:43.756Z,43.89
2022-08-16T08:44:28.612Z,43.63
2022-08-16T08:47:07.884Z,43.43
2022-08-16T08:49:46.031Z,43.20
2022-08-16T08:52:34.890Z,43.43
2022-08-16T08:55:12.736Z,43.56
2022-08-16T08:57:45.246Z,43.42
2022-08-16T09:00:34.663Z,43.08
2022-08-16T09:03:21.651Z,42.66
2022-08-16T09:05:51.865Z,42.18
2022-08-16T09:08:22.508Z,42.06
2022-08-16T09:11:03.132Z,42.14
2022-08-16T09:13:34.180Z,41.74
2022-08-16T09:16:04.432Z,41.80
2022-08-16T09:18:35.640Z,42.05
2022-08-16T09:21:09.353Z,41.65
2022-08-16T09:23:38.433Z,41.86
2022-08-16T09:26:44.398Z,41.72
2022-08-16T09:29:15.639Z,41.70
2022-08-16T09:31:53.364Z,41.47
2022-08-16T09:34:23.539Z,40.76
2022-08-16T09:36:54.550Z,41.13
2022-08-16T09:39:23.152Z,41.37
2022-08-16T09:41:54.353Z,40.97
2022-08-16T09:45:09.100Z,41.21
2022-08-16T09:47:13.220Z,40.74
2022-08-16T09:49:42.823Z,40.91
2022-08-16T09:52:19.418Z,41.01
2022-08-16T09:54:50.738Z,41.07
2022-08-16T09:57:20.052Z,40.37
2022-08-16T09:59:56.267Z,40.31
2022-08-16T10:02:27.732Z,40.17
2022-08-16T10:05:01.970Z,39.94
2022-08-16T10:07:44.122Z,40.00
2022-08-16T10:10:30.792Z,39.27
2022-08-16T10:13:16.390Z,39.20
2022-08-16T10:15:54.994Z,39.96
2022-08-16T10:18:54.032Z,39.66
2022-08-16T10:21:17.075Z,39.02
2022-08-16T10:23:48.667Z,39.13
2022-08-16T10:27:20.420Z,39.47
2022-08-16T10:29:06.806Z,39.38
2022-08-16T10:31:44.294Z,38.94
2022-08-16T10:34:31.331Z,38.50
2022-08-16T10:37:02.736Z,38.19
2022-08-16T10:39:41.412Z,37.83
2022-08-16T10:42:10.654Z,37.92
2022-08-16T10:44:42.401Z,37.28
2022-08-16T10:47:11.671Z,37.65
2022-08-16T10:49:40.279Z,37.70
2022-08-16T10:52:18.829Z,37.87
2022-08-16T10:54:59.181Z,37.88
2022-08-16T10:57:33.064Z,37.25
2022-08-16T11:00:04.511Z,37.90
2022-08-16T11:02:58.248Z,37.86
2022-08-16T11:05:21.571Z,37.52
2022-08-16T11:07:53.480Z,37.59
2022-08-16T11:19:05.438Z,36.70
2022-08-16T11:22:11.156Z,37.34
2022-08-16T11:24:42.711Z,37.27
2022-08-16T11:27:19.742Z,36.75
2022-08-16T11:29:52.227Z,36.21
2022-08-16T11:32:22.765Z,35.24
2022-08-16T11:35:10.543Z,36.28
2022-08-16T11:40:38.959Z,36.43
2022-08-16T11:43:13.060Z,36.48
2022-08-16T11:45:54.154Z,35.03
2022-08-16T11:48:24.644Z,35.31
2022-08-16T11:50:53.009Z,35.58
2022-08-16T11:53:22.111Z,35.74
2022-08-16T11:55:54.871Z,34.77
2022-08-16T11:58:24.587Z,34.74
2022-08-16T12:00:55.009Z,34.43
2022-08-16T12:03:34.211Z,35.17
2022-08-16T12:06:10.842Z,35.20
2022-08-16T12:08:53.332Z,33.90
2022-08-16T12:11:27.029Z,33.74
2022-08-16T12:13:59.853Z,33.21
2022-08-16T12:16:31.013Z,32.80
2022-08-16T12:19:02.731Z,32.15
2022-08-16T12:21:57.624Z,32.10
2022-08-16T12:24:21.182Z,32.44
2022-08-16T12:26:50.764Z,31.97
2022-08-16T12:29:23.066Z,32.20
2022-08-16T12:32:26.620Z,31.98
2022-08-16T12:34:50.748Z,31.03
2022-08-16T12:37:24.284Z,30.20
2022-08-16T12:39:56.167Z,30.27
2022-08-16T12:42:34.471Z,30.49
2022-08-16T12:45:05.000Z,29.94
2022-08-16T12:47:50.418Z,30.48
2022-08-16T12:50:20.240Z,30.29
2022-08-16T12:52:53.324Z,29.17
2022-08-16T12:55:23.895Z,29.31
2022-08-16T12:58:04.033Z,29.34
2022-08-16T13:00:43.554Z,28.98
2022-08-16T13:03:12.873Z,28.90
2022-08-16T13:05:47.723Z,29.04
2022-08-16T13:08:27.437Z,29.43
2022-08-16T13:10:59.480Z,28.58
2022-08-16T13:13:29.761Z,28.29
2022-08-16T13:16:03.626Z,28.31
2022-08-16T13:18:35.605Z,28.76
2022-08-16T13:21:04.905Z,28.87
2022-08-16T13:23:34.050Z,28.37
2022-08-16T13:26:05.153Z,28.24
2022-08-16T13:28:37.515Z,27.70
2022-08-16T13:31:08.021Z,27.84
2022-08-16T13:33:37.848Z,28.17
2022-08-16T13:36:17.119Z,28.60
2022-08-16T13:38:57.578Z,28.20
2022-08-16T13:41:30.346Z,28.82
2022-08-16T13:44:01.244Z,28.23
2022-08-16T13:46:33.342Z,27.73
2022-08-16T13:49:02.150Z,29.34
2022-08-16T13:51:31.144Z,28.56
2022-08-16T13:54:03.957Z,28.29
2022-08-16T13:56:38.660Z,27.62
2022-08-16T13:59:13.959Z,27.97
2022-08-16T14:01:55.026Z,27.45
2022-08-16T14:04:26.231Z,27.60
2022-08-16T14:06:56.283Z,27.52
2022-08-16T14:09:25.116Z,27.63
2022-08-16T14:11:55.942Z,27.23
2022-08-16T14:14:29.233Z,26.78
2022-08-16T14:16:59.007Z,27.58
2022-08-16T14:19:29.587Z,27.05
2022-08-16T14:22:13.970Z,26.31
2022-08-16T14:24:45.314Z,27.21
2022-08-16T14:27:17.951Z,26.49
2022-08-16T14:29:49.419Z,25.99
2022-08-16T14:32:27.074Z,25.51
2022-08-16T14:35:03.283Z,27.13
2022-08-16T14:37:32.627Z,27.59
2022-08-16T14:40:01.241Z,26.56
2022-08-16T14:42:32.316Z,26.47
2022-08-16T14:45:02.175Z,26.14
2022-08-16T14:47:31.591Z,27.73
2022-08-16T14:50:05.823Z,26.94
2022-08-16T14:55:23.274Z,27.20
2022-08-16T14:57:54.433Z,26.89
2022-08-16T15:00:33.842Z,26.03
2022-08-16T15:03:06.976Z,26.72
2022-08-16T15:05:38.641Z,26.14
2022-08-16T15:08:07.544Z,26.05
2022-08-16T15:10:37.283Z,26.07
2022-08-16T15:13:09.511Z,26.61
2022-08-16T15:15:39.878Z,26.32
2022-08-16T15:18:12.291Z,26.51
2022-08-16T15:20:41.370Z,26.49
2022-08-16T15:23:10.358Z,25.59
2022-08-16T15:25:41.460Z,24.71
2022-08-16T15:28:30.792Z,24.78
2022-08-16T15:33:33.320Z,24.17
2022-08-16T15:36:05.746Z,23.98
2022-08-16T15:39:02.254Z,24.34
2022-08-16T15:41:58.321Z,24.96
2022-08-16T15:44:42.707Z,24.51
2022-08-16T15:47:25.816Z,23.94
2022-08-16T15:49:55.652Z,24.07
2022-08-16T15:52:30.409Z,23.98
2022-08-16T15:55:00.376Z,23.66
2022-08-16T15:57:41.294Z,23.30
2022-08-16T16:00:14.984Z,22.73
2022-08-16T16:02:46.998Z,23.58
2022-08-16T16:05:19.635Z,24.91
2022-08-16T16:07:56.857Z,24.13
2022-08-16T16:10:37.450Z,22.71
2022-08-16T16:13:10.779Z,24.39
2022-08-16T16:15:40.659Z,24.30
2022-08-16T16:18:12.104Z,25.24
2022-08-16T16:20:43.801Z,25.20
2022-08-16T16:23:12.499Z,25.46
2022-08-16T16:25:44.011Z,25.45
2022-08-16T16:29:06.733Z,25.42
2022-08-16T16:31:04.867Z,25.24
2022-08-16T16:33:41.089Z,26.38
2022-08-16T16:36:14.795Z,25.21
2022-08-16T16:38:46.343Z,26.65
2022-08-16T16:41:16.546Z,26.95
2022-08-16T16:43:45.909Z,27.13
2022-08-16T16:46:41.091Z,25.96
2022-08-16T16:49:08.834Z,25.40
2022-08-16T16:51:47.100Z,25.50
2022-08-16T16:54:28.005Z,26.22
2022-08-16T16:56:57.816Z,27.00
2022-08-16T16:59:28.491Z,27.01
2022-08-16T17:02:38.504Z,27.58
2022-08-16T17:04:47.791Z,27.77
2022-08-16T17:07:16.840Z,27.82
2022-08-16T17:09:45.782Z,28.40
2022-08-16T17:12:24.528Z,28.46
2022-08-16T17:14:54.032Z,28.84
2022-08-16T17:17:22.658Z,29.61
2022-08-16T17:19:54.180Z,30.25
2022-08-16T17:22:23.849Z,30.73
2022-08-16T17:25:01.814Z,31.17
2022-08-16T17:27:33.176Z,31.76
2022-08-16T17:30:15.606Z,32.25
2022-08-16T17:32:50.702Z,32.21
2022-08-16T17:35:34.267Z,31.92
2022-08-16T17:38:06.311Z,31.24
2022-08-16T17:40:47.399Z,32.14
2022-08-16T17:43:25.878Z,32.67
2022-08-16T17:45:55.916Z,32.64
2022-08-16T17:48:24.118Z,32.99
2022-08-16T17:50:54.716Z,32.87
2022-08-16T17:53:23.497Z,32.63
2022-08-16T17:55:52.486Z,33.38
2022-08-16T17:58:23.459Z,33.34
2022-08-16T18:00:55.027Z,33.32
2022-08-16T18:04:02.193Z,33.77
2022-08-16T18:06:16.816Z,33.30
2022-08-16T18:08:48.310Z,33.59
2022-08-16T18:11:18.298Z,34.08
2022-08-16T18:13:46.923Z,33.67
2022-08-16T18:16:17.252Z,33.85
2022-08-16T18:18:46.142Z,33.89
2022-08-16T18:21:33.959Z,33.57
2022-08-16T18:24:02.226Z,33.85
2022-08-16T18:26:30.760Z,34.30
2022-08-16T18:28:58.897Z,34.21
2022-08-16T18:31:27.236Z,33.82
2022-08-16T18:33:55.625Z,34.59
2022-08-16T18:36:28.500Z,34.11
2022-08-16T18:38:56.708Z,34.46
2022-08-16T18:41:26.374Z,34.42
2022-08-16T18:44:25.485Z,34.68
2022-08-16T18:46:44.545Z,34.18
2022-08-16T18:49:13.123Z,34.76
2022-08-16T18:51:45.932Z,34.61
2022-08-16T18:54:16.384Z,34.98
2022-08-16T18:56:56.073Z,35.15
2022-08-16T18:59:28.094Z,35.10
2022-08-16T19:01:59.994Z,35.21
2022-08-16T19:04:56.754Z,35.42
2022-08-16T19:07:30.443Z,35.87
2022-08-16T19:10:00.480Z,35.98
2022-08-16T19:12:37.714Z,36.44
2022-08-16T19:15:13.417Z,36.40
2022-08-16T19:17:43.269Z,36.54
2022-08-16T19:20:13.130Z,37.20
2022-08-16T19:25:46.712Z,36.98
2022-08-16T19:28:49.597Z,37.36
2022-08-16T19:31:12.788Z,37.92
2022-08-16T19:33:53.270Z,38.48
2022-08-16T19:36:31.020Z,37.85
2022-08-16T19:39:04.521Z,37.84
2022-08-16T19:41:35.426Z,38.25
2022-08-16T19:44:04.268Z,38.72
2022-08-16T19:46:32.698Z,38.55
2022-08-16T19:49:01.570Z,38.98
2022-08-16T19:51:31.221Z,39.54
2022-08-16T19:53:59.863Z,39.22
2022-08-16T19:56:29.759Z,39.22
2022-08-16T20:01:49.639Z,39.68
2022-08-16T20:04:18.944Z,40.03
2022-08-16T20:06:47.562Z,40.27
2022-08-16T20:09:16.455Z,40.52
2022-08-16T20:11:47.094Z,40.57
2022-08-16T20:14:24.345Z,40.90
2022-08-16T20:16:56.709Z,40.79
2022-08-16T20:19:25.635Z,40.72
2022-08-16T20:21:56.712Z,40.70
2022-08-16T20:24:35.222Z,40.95
2022-08-16T20:27:07.486Z,41.08
2022-08-16T20:29:35.888Z,41.38
2022-08-16T20:32:05.761Z,41.36
2022-08-16T20:34:34.370Z,40.89
2022-08-16T20:37:02.658Z,41.60
2022-08-16T20:39:30.942Z,41.77
2022-08-16T20:41:59.394Z,41.45
2022-08-16T20:44:29.118Z,41.50
2022-08-16T20:46:57.272Z,40.99
2022-08-16T20:49:25.453Z,41.64
2022-08-16T20:51:57.394Z,42.44
2022-08-16T20:54:28.118Z,41.79
2022-08-16T20:56:56.840Z,42.17
2022-08-16T20:59:25.485Z,42.28
2022-08-16T21:01:55.534Z,42.40
2022-08-16T21:04:27.432Z,42.49
2022-08-16T21:06:58.429Z,42.27
2022-08-16T21:09:28.937Z,42.90
2022-08-16T21:12:01.653Z,42.97
2022-08-16T21:14:34.247Z,42.83
2022-08-16T21:17:08.500Z,43.06
2022-08-16T21:19:37.166Z,42.81
2022-08-16T21:22:16.462Z,42.85
2022-08-16T21:24:46.313Z,43.23
2022-08-16T21:27:15.238Z,42.89
2022-08-16T21:29:46.331Z,42.91
2022-08-16T21:32:20.118Z,43.20
2022-08-16T21:35:08.025Z,43.30
2022-08-16T21:37:36.289Z,43.22
2022-08-16T21:40:06.452Z,43.48
2022-08-16T21:42:36.538Z,43.83
2022-08-16T21:45:08.105Z,43.82
2022-08-16T21:47:37.837Z,43.56
2022-08-16T21:50:08.934Z,43.65
2022-08-16T21:52:40.794Z,43.28
2022-08-16T21:55:10.198Z,43.69
2022-08-16T21:57:38.976Z,43.87
2022-08-16T22:00:12.807Z,44.04
2022-08-16T22:02:50.555Z,43.57
2022-08-16T22:05:19.400Z,43.92
2022-08-16T22:07:47.713Z,43.99
2022-08-16T22:11:07.253Z,44.07
2022-08-16T22:13:06.001Z,43.88
2022-08-16T22:15:34.228Z,43.56
2022-08-16T22:18:04.155Z,43.35
2022-08-16T22:20:32.388Z,43.62
2022-08-16T22:23:06.702Z,43.83
2022-08-16T22:25:38.360Z,44.02
2022-08-16T22:28:06.935Z,43.95
2022-08-16T22:30:35.156Z,43.75
2022-08-16T22:33:09.045Z,44.02
2022-08-16T22:35:42.716Z,43.81
2022-08-16T22:38:56.048Z,43.32
2022-08-16T22:41:04.369Z,44.40
2022-08-16T22:43:32.821Z,44.04
2022-08-16T22:46:01.184Z,44.58
2022-08-16T22:48:30.857Z,44.50
2022-08-16T22:51:08.016Z,44.97
2022-08-16T22:53:37.423Z,45.38
2022-08-16T22:56:06.315Z,45.09
2022-08-16T22:58:37.133Z,45.05
2022-08-16T23:01:13.039Z,45.18
2022-08-16T23:03:42.973Z,45.80
2022-08-16T23:06:13.024Z,45.61
2022-08-16T23:08:43.090Z,45.44
2022-08-16T23:11:13.199Z,45.79
2022-08-16T23:13:52.546Z,45.60
2022-08-16T23:16:23.398Z,45.93
2022-08-16T23:19:01.583Z,45.77
2022-08-16T23:21:29.970Z,45.86
2022-08-16T23:23:58.400Z,46.17
2022-08-16T23:26:44.673Z,45.94
2022-08-16T23:29:22.475Z,45.90
2022-08-16T23:31:54.335Z,45.45
2022-08-16T23:34:23.892Z,45.91
2022-08-16T23:36:52.156Z,45.86
2022-08-16T23:39:20.559Z,46.34
2022-08-16T23:41:48.792Z,46.03
2022-08-16T23:44:56.089Z,46.28
2022-08-16T23:47:06.500Z,46.56
2022-08-16T23:50:01.529Z,46.62
2022-08-16T23:52:53.370Z,46.49
2022-08-16T23:55:13.043Z,45.96
2022-08-16T23:57:41.218Z,46.40
